createdAt,value
2019-04-16T00:02:18.736Z,36.60
2019-04-16T00:05:06.966Z,36.80
2019-04-16T00:07:46.527Z,41.10
2019-04-16T00:10:25.743Z,41.50
2019-04-16T00:13:00.497Z,25.50
2019-04-16T00:15:29.792Z,31.30
2019-04-16T00:17:59.088Z,29.90
2019-04-16T00:20:28.407Z,27.90
2019-04-16T00:23:03.694Z,30.90
2019-04-16T00:25:33.238Z,33.60
2019-04-16T00:28:02.790Z,29.00
2019-04-16T00:30:35.500Z,30.20
2019-04-16T00:33:03.190Z,31.00
2019-04-16T00:35:32.500Z,28.50
2019-04-16T00:38:01.793Z,27.80
2019-04-16T00:40:31.107Z,29.00
2019-04-16T00:43:00.429Z,32.20
2019-04-16T00:45:29.723Z,30.90
2019-04-16T00:47:59.032Z,35.10
2019-04-16T00:50:28.351Z,35.20
2019-04-16T00:52:57.857Z,34.90
2019-04-16T00:55:27.354Z,31.40
2019-04-16T00:57:56.675Z,35.10
2019-04-16T01:00:27.720Z,31.20
2019-04-16T01:02:57.163Z,34.30
2019-04-16T01:05:26.519Z,36.30
2019-04-16T01:07:55.878Z,31.00
2019-04-16T01:10:25.197Z,32.00
2019-04-16T01:12:54.486Z,31.60
2019-04-16T01:15:23.798Z,34.50
2019-04-16T01:17:53.162Z,36.60
2019-04-16T01:20:22.615Z,36.40
2019-04-16T01:22:52.003Z,38.30
2019-04-16T01:25:23.267Z,36.60
2019-04-16T01:28:00.612Z,36.50
2019-04-16T01:30:50.752Z,34.20
2019-04-16T01:33:30.224Z,36.10
2019-04-16T01:36:06.262Z,39.30
2019-04-16T01:38:49.653Z,41.20
2019-04-16T01:41:21.656Z,38.10
2019-04-16T01:43:50.098Z,35.60
2019-04-16T01:46:19.396Z,37.00
2019-04-16T01:48:48.738Z,43.10
2019-04-16T01:51:18.104Z,44.00
2019-04-16T01:53:49.429Z,43.70
2019-04-16T01:56:18.494Z,41.50
2019-04-16T01:58:47.867Z,43.60
2019-04-16T02:01:17.216Z,44.50
2019-04-16T02:03:48.955Z,45.50
2019-04-16T02:06:17.706Z,44.30
2019-04-16T02:08:47.133Z,45.70
2019-04-16T02:11:16.486Z,48.10
2019-04-16T02:13:46.853Z,40.70
2019-04-16T02:16:16.452Z,39.00
2019-04-16T02:18:45.784Z,43.60
2019-04-16T02:21:15.111Z,37.00
2019-04-16T02:23:45.359Z,35.30
2019-04-16T02:26:15.905Z,34.90
2019-04-16T02:28:45.271Z,35.60
2019-04-16T02:31:16.371Z,37.10
2019-04-16T02:33:45.940Z,36.70
2019-04-16T02:36:15.303Z,36.00
2019-04-16T02:38:52.416Z,38.80
2019-04-16T02:41:15.746Z,38.30
2019-04-16T02:43:45.118Z,40.10
2019-04-16T02:46:14.556Z,41.50
2019-04-16T02:48:50.267Z,39.20
2019-04-16T02:51:39.914Z,40.90
2019-04-16T02:54:34.044Z,39.20
2019-04-16T02:57:33.903Z,39.60
2019-04-16T03:00:08.111Z,40.80
2019-04-16T03:02:56.363Z,37.60
2019-04-16T03:05:31.510Z,32.10
2019-04-16T03:08:04.516Z,37.30
2019-04-16T03:10:32.596Z,38.20
2019-04-16T03:13:01.918Z,39.30
2019-04-16T03:15:55.125Z,38.60
2019-04-16T03:18:29.948Z,38.30
2019-04-16T03:20:59.262Z,37.60
2019-04-16T03:23:28.571Z,39.30
2019-04-16T03:25:58.006Z,40.20
2019-04-16T03:28:28.105Z,41.90
2019-04-16T03:30:57.635Z,41.40
2019-04-16T03:33:27.050Z,44.30
2019-04-16T03:35:57.813Z,42.30
2019-04-16T03:38:27.335Z,38.20
2019-04-16T03:40:56.809Z,38.00
2019-04-16T03:43:26.265Z,37.70
2019-04-16T03:45:55.548Z,39.80
2019-04-16T03:48:24.901Z,37.60
2019-04-16T03:50:54.242Z,39.80
2019-04-16T03:53:23.524Z,40.90
2019-04-16T03:55:54.585Z,40.10
2019-04-16T03:58:23.911Z,40.20
2019-04-16T04:00:53.278Z,36.40
2019-04-16T04:03:25.902Z,40.20
2019-04-16T04:05:57.208Z,39.40
2019-04-16T04:08:26.676Z,39.30
2019-04-16T04:10:56.101Z,43.30
2019-04-16T04:13:25.398Z,45.60
2019-04-16T04:15:55.151Z,46.10
2019-04-16T04:18:25.114Z,46.50
2019-04-16T04:20:54.481Z,44.20
2019-04-16T04:23:25.428Z,44.30
2019-04-16T04:25:54.882Z,43.40
2019-04-16T04:28:24.190Z,44.20
2019-04-16T04:30:53.519Z,43.00
2019-04-16T04:33:41.854Z,46.50
2019-04-16T04:36:10.985Z,41.90
2019-04-16T04:38:40.367Z,40.00
2019-04-16T04:41:09.824Z,41.50
2019-04-16T04:43:39.129Z,42.30
2019-04-16T04:46:12.964Z,39.90
2019-04-16T04:48:39.600Z,39.90
2019-04-16T04:51:09.137Z,40.00
2019-04-16T04:53:38.568Z,41.30
2019-04-16T04:56:07.932Z,43.40
2019-04-16T04:58:37.280Z,42.40
2019-04-16T05:01:09.170Z,41.60
2019-04-16T05:03:56.624Z,40.80
2019-04-16T05:06:29.457Z,39.50
2019-04-16T05:09:00.389Z,40.70
2019-04-16T05:11:29.852Z,41.00
2019-04-16T05:13:59.144Z,40.50
2019-04-16T05:16:28.481Z,40.50
2019-04-16T05:18:57.823Z,39.60
2019-04-16T05:21:27.104Z,39.60
2019-04-16T05:23:57.556Z,40.10
2019-04-16T05:26:27.442Z,40.40
2019-04-16T05:28:58.327Z,40.60
2019-04-16T05:31:30.800Z,40.90
2019-04-16T05:34:02.130Z,42.40
2019-04-16T05:36:29.748Z,40.10
2019-04-16T05:38:59.079Z,38.40
2019-04-16T05:41:28.398Z,40.20
2019-04-16T05:43:58.479Z,39.70
2019-04-16T05:46:28.847Z,40.20
2019-04-16T05:48:58.217Z,39.80
2019-04-16T05:51:28.514Z,40.70
2019-04-16T05:54:01.817Z,41.40
2019-04-16T05:56:38.792Z,40.50
2019-04-16T05:59:08.104Z,39.20
2019-04-16T06:01:42.447Z,37.70
2019-04-16T06:04:13.061Z,38.30
2019-04-16T06:06:42.400Z,36.30
2019-04-16T06:09:12.905Z,37.30
2019-04-16T06:11:42.799Z,37.70
2019-04-16T06:14:31.036Z,40.50
2019-04-16T06:17:31.809Z,40.50
2019-04-16T06:20:27.286Z,41.20
2019-04-16T06:23:31.713Z,41.40
2019-04-16T06:26:03.798Z,40.00
2019-04-16T06:28:55.133Z,39.30
2019-04-16T06:31:36.284Z,39.70
2019-04-16T06:34:19.079Z,40.20
2019-04-16T06:37:10.247Z,38.00
2019-04-16T06:40:00.939Z,37.30
2019-04-16T06:42:38.465Z,36.60
2019-04-16T06:45:38.636Z,37.00
2019-04-16T06:48:13.187Z,36.70
2019-04-16T06:51:12.434Z,36.20
2019-04-16T06:53:47.917Z,36.30
2019-04-16T06:56:31.518Z,37.60
2019-04-16T06:59:05.963Z,37.60
2019-04-16T07:01:52.855Z,36.30
2019-04-16T07:04:33.145Z,37.20
2019-04-16T07:07:39.823Z,32.50
2019-04-16T07:10:14.568Z,34.60
2019-04-16T07:12:43.899Z,31.40
2019-04-16T07:15:14.365Z,33.30
2019-04-16T07:17:43.761Z,33.40
2019-04-16T07:20:14.228Z,33.40
2019-04-16T07:22:43.688Z,32.10
2019-04-16T07:25:13.425Z,33.40
2019-04-16T07:28:02.217Z,33.50
2019-04-16T07:30:40.044Z,33.50
2019-04-16T07:33:25.516Z,32.80
2019-04-16T07:36:13.753Z,32.60
2019-04-16T07:38:48.321Z,33.90
2019-04-16T07:41:31.691Z,33.70
2019-04-16T07:44:18.018Z,32.30
2019-04-16T07:47:12.442Z,31.70
2019-04-16T07:50:01.817Z,31.70
2019-04-16T07:52:48.874Z,28.40
2019-04-16T07:55:49.168Z,29.50
2019-04-16T07:58:18.578Z,28.60
2019-04-16T08:00:48.008Z,29.70
2019-04-16T08:03:17.407Z,29.60
2019-04-16T08:05:46.829Z,31.60
2019-04-16T08:08:16.206Z,30.00
2019-04-16T08:10:45.514Z,31.30
2019-04-16T08:13:25.435Z,31.60
2019-04-16T08:15:56.678Z,33.20
2019-04-16T08:18:25.871Z,32.60
2019-04-16T08:21:02.058Z,33.30
2019-04-16T08:23:39.286Z,33.30
2019-04-16T08:26:12.972Z,33.90
2019-04-16T08:28:39.990Z,36.20
2019-04-16T08:31:14.130Z,37.10
2019-04-16T08:33:43.458Z,38.00
2019-04-16T08:36:12.766Z,37.40
2019-04-16T08:38:42.112Z,36.50
2019-04-16T08:41:13.120Z,35.80
2019-04-16T08:43:42.466Z,38.30
2019-04-16T08:46:11.978Z,38.50
2019-04-16T08:48:41.578Z,37.30
2019-04-16T08:51:10.994Z,37.70
2019-04-16T08:53:40.390Z,39.30
2019-04-16T08:56:09.773Z,42.00
2019-04-16T08:58:39.203Z,40.50
2019-04-16T09:01:10.007Z,41.30
2019-04-16T09:03:39.383Z,41.60
2019-04-16T09:06:12.784Z,40.60
2019-04-16T09:09:11.506Z,40.20
2019-04-16T09:11:35.103Z,40.70
2019-04-16T09:14:02.986Z,41.40
2019-04-16T09:16:34.091Z,41.50
2019-04-16T09:19:09.562Z,42.00
2019-04-16T09:21:43.233Z,40.40
2019-04-16T09:24:27.590Z,40.80
2019-04-16T09:27:18.695Z,39.90
2019-04-16T09:30:19.025Z,39.60
2019-04-16T09:33:00.411Z,38.70
2019-04-16T09:35:33.572Z,39.10
2019-04-16T09:38:21.845Z,38.70
2019-04-16T09:41:12.934Z,39.60
2019-04-16T09:43:45.037Z,38.50
2019-04-16T09:46:21.487Z,38.70
2019-04-16T09:48:45.421Z,39.70
2019-04-16T09:51:19.035Z,38.40
2019-04-16T09:53:45.799Z,37.60
2019-04-16T09:56:30.567Z,36.60
2019-04-16T09:59:21.257Z,38.60
2019-04-16T10:01:53.749Z,40.60
2019-04-16T10:04:23.042Z,38.90
2019-04-16T10:06:52.376Z,38.60
2019-04-16T10:09:23.178Z,37.00
2019-04-16T10:11:52.715Z,37.30
2019-04-16T10:14:22.036Z,35.50
2019-04-16T10:16:52.005Z,36.30
2019-04-16T10:19:22.119Z,35.30
2019-04-16T10:21:54.248Z,33.80
2019-04-16T10:24:40.385Z,32.20
2019-04-16T10:27:12.781Z,33.10
2019-04-16T10:29:42.335Z,33.10
2019-04-16T10:32:12.464Z,30.70
2019-04-16T10:34:41.854Z,33.50
2019-04-16T10:37:11.167Z,32.10
2019-04-16T10:39:53.926Z,32.70
2019-04-16T10:42:41.093Z,31.60
2019-04-16T10:45:22.437Z,31.70
2019-04-16T10:48:16.603Z,30.50
2019-04-16T10:51:15.517Z,29.40
2019-04-16T10:53:51.623Z,28.60
2019-04-16T10:56:38.862Z,29.50
2019-04-16T10:59:36.404Z,29.40
2019-04-16T11:02:36.726Z,26.70
2019-04-16T11:05:14.971Z,28.20
2019-04-16T11:07:44.187Z,29.40
2019-04-16T11:10:13.667Z,26.70
2019-04-16T11:12:43.076Z,27.30
2019-04-16T11:15:14.957Z,30.40
2019-04-16T11:17:44.390Z,29.50
2019-04-16T11:20:14.245Z,27.10
2019-04-16T11:22:43.642Z,26.70
2019-04-16T11:25:13.073Z,28.10
2019-04-16T11:27:42.512Z,29.30
2019-04-16T11:30:21.092Z,28.80
2019-04-16T11:32:53.217Z,29.30
2019-04-16T11:35:24.085Z,27.60
2019-04-16T11:37:53.438Z,28.20
2019-04-16T11:40:22.882Z,27.30
2019-04-16T11:42:52.258Z,27.90
2019-04-16T11:45:21.672Z,27.80
2019-04-16T11:47:51.069Z,28.00
2019-04-16T11:50:20.433Z,28.00
2019-04-16T11:52:49.825Z,25.90
2019-04-16T11:55:19.275Z,26.00
2019-04-16T11:57:48.615Z,26.10
2019-04-16T12:00:28.001Z,24.00
2019-04-16T12:03:13.109Z,24.10
2019-04-16T12:05:55.990Z,25.00
2019-04-16T12:08:35.061Z,22.90
2019-04-16T12:11:26.455Z,21.80
2019-04-16T12:14:29.597Z,20.60
2019-04-16T12:17:07.711Z,20.30
2019-04-16T12:19:55.017Z,20.50
2019-04-16T12:22:52.486Z,20.90
2019-04-16T12:25:55.705Z,23.60
2019-04-16T12:28:33.964Z,21.50
2019-04-16T12:31:31.370Z,20.20
2019-04-16T12:34:34.928Z,19.30
2019-04-16T12:37:29.185Z,20.50
2019-04-16T12:40:20.072Z,20.40
2019-04-16T12:43:03.644Z,19.50
2019-04-16T12:46:04.043Z,20.20
2019-04-16T12:49:10.385Z,21.50
2019-04-16T12:51:52.637Z,22.40
2019-04-16T12:54:51.339Z,21.50
2019-04-16T12:57:28.214Z,23.70
2019-04-16T13:00:15.355Z,24.10
2019-04-16T13:03:03.666Z,23.50
2019-04-16T13:05:50.991Z,22.80
2019-04-16T13:08:45.165Z,22.60
2019-04-16T13:11:23.340Z,21.90
2019-04-16T13:14:29.612Z,22.20
2019-04-16T13:17:05.447Z,22.60
2019-04-16T13:20:00.057Z,24.00
2019-04-16T13:22:34.330Z,20.80
2019-04-16T13:25:13.896Z,22.20
2019-04-16T13:27:43.439Z,21.20
2019-04-16T13:30:12.742Z,20.00
2019-04-16T13:32:42.089Z,21.90
2019-04-16T13:35:11.800Z,20.80
2019-04-16T13:37:41.265Z,21.20
2019-04-16T13:40:13.317Z,20.80
2019-04-16T13:42:43.121Z,21.00
2019-04-16T13:45:36.135Z,22.90
2019-04-16T13:48:17.326Z,21.90
2019-04-16T13:50:42.780Z,23.50
2019-04-16T13:53:33.948Z,21.00
2019-04-16T13:56:25.089Z,20.90
2019-04-16T13:59:00.696Z,18.60
2019-04-16T14:01:33.496Z,20.20
2019-04-16T14:04:02.790Z,20.90
2019-04-16T14:06:32.133Z,20.50
2019-04-16T14:09:01.531Z,20.70
2019-04-16T14:11:30.949Z,20.40
2019-04-16T14:14:00.326Z,20.60
2019-04-16T14:16:29.649Z,21.30
2019-04-16T14:18:58.996Z,21.30
2019-04-16T14:21:28.347Z,18.70
2019-04-16T14:23:57.760Z,18.90
2019-04-16T14:26:27.057Z,17.80
2019-04-16T14:28:56.963Z,18.30
2019-04-16T14:31:27.287Z,20.00
2019-04-16T14:34:04.522Z,20.20
2019-04-16T14:36:33.883Z,18.30
2019-04-16T14:39:15.345Z,19.10
2019-04-16T14:41:48.726Z,19.90
2019-04-16T14:44:16.552Z,18.90
2019-04-16T14:46:45.885Z,19.70
2019-04-16T14:49:18.234Z,20.80
2019-04-16T14:51:46.269Z,20.50
2019-04-16T14:54:30.666Z,19.90
2019-04-16T14:57:00.088Z,21.40
2019-04-16T14:59:47.302Z,20.80
2019-04-16T15:02:31.043Z,20.90
2019-04-16T15:05:28.428Z,21.70
2019-04-16T15:08:03.156Z,23.20
2019-04-16T15:10:49.953Z,23.80
2019-04-16T15:13:28.686Z,22.60
2019-04-16T15:16:24.096Z,21.40
2019-04-16T15:19:21.247Z,23.30
2019-04-16T15:22:08.145Z,21.80
2019-04-16T15:24:47.427Z,22.90
2019-04-16T15:27:38.564Z,22.20
2019-04-16T15:30:28.590Z,22.20
2019-04-16T15:33:15.674Z,21.10
2019-04-16T15:35:52.864Z,20.60
2019-04-16T15:38:31.327Z,21.00
2019-04-16T15:41:17.611Z,20.40
2019-04-16T15:44:24.207Z,23.00
2019-04-16T15:47:32.555Z,23.50
2019-04-16T15:50:26.293Z,23.80
2019-04-16T15:52:58.261Z,23.90
2019-04-16T15:55:52.454Z,24.00
2019-04-16T15:58:32.197Z,24.70
2019-04-16T16:01:06.753Z,24.80
2019-04-16T16:04:07.006Z,25.60
2019-04-16T16:06:43.348Z,26.70
2019-04-16T16:09:28.472Z,25.70
2019-04-16T16:12:11.855Z,25.70
2019-04-16T16:14:41.204Z,26.50
2019-04-16T16:17:10.524Z,26.80
2019-04-16T16:19:39.871Z,26.50
2019-04-16T16:22:11.968Z,27.10
2019-04-16T16:24:42.364Z,26.90
2019-04-16T16:27:11.298Z,27.30
2019-04-16T16:29:40.636Z,27.00
2019-04-16T16:32:09.939Z,27.40
2019-04-16T16:34:39.396Z,27.00
2019-04-16T16:37:08.689Z,27.20
2019-04-16T16:39:38.089Z,26.90
2019-04-16T16:42:07.472Z,27.20
2019-04-16T16:44:36.854Z,27.20
2019-04-16T16:47:15.242Z,28.10
2019-04-16T16:49:44.564Z,28.40
2019-04-16T16:52:42.080Z,28.40
2019-04-16T16:55:19.935Z,28.70
2019-04-16T16:57:55.366Z,27.20
2019-04-16T17:00:59.791Z,27.10
2019-04-16T17:03:52.432Z,27.40
2019-04-16T17:06:21.448Z,27.40
2019-04-16T17:08:50.842Z,28.20
2019-04-16T17:11:20.415Z,29.10
2019-04-16T17:13:49.843Z,29.00
2019-04-16T17:16:19.187Z,29.30
2019-04-16T17:18:48.576Z,30.10
2019-04-16T17:21:17.923Z,29.00
2019-04-16T17:23:47.280Z,29.40
2019-04-16T17:26:16.817Z,29.70
2019-04-16T17:28:46.168Z,30.50
2019-04-16T17:31:15.529Z,30.00
2019-04-16T17:33:44.921Z,30.70
2019-04-16T17:36:14.273Z,30.70
2019-04-16T17:38:43.618Z,31.00
2019-04-16T17:41:15.643Z,31.00
2019-04-16T17:44:04.099Z,30.50
2019-04-16T17:46:55.648Z,30.60
2019-04-16T17:49:43.891Z,30.50
2019-04-16T17:52:19.868Z,33.40
2019-04-16T17:55:15.554Z,32.60
2019-04-16T17:57:57.379Z,30.90
2019-04-16T18:00:45.755Z,31.00
2019-04-16T18:03:37.103Z,30.60
2019-04-16T18:06:28.453Z,32.00
2019-04-16T18:09:06.964Z,32.20
2019-04-16T18:12:04.315Z,31.80
2019-04-16T18:14:52.703Z,32.30
2019-04-16T18:17:47.864Z,31.00
2019-04-16T18:20:31.132Z,31.60
2019-04-16T18:23:17.996Z,31.30
2019-04-16T18:26:21.372Z,32.30
2019-04-16T18:29:01.039Z,32.20
2019-04-16T18:31:37.862Z,32.90
2019-04-16T18:34:26.143Z,32.80
2019-04-16T18:37:15.975Z,33.00
2019-04-16T18:39:52.452Z,33.30
2019-04-16T18:42:43.686Z,34.40
2019-04-16T18:45:43.039Z,35.40
2019-04-16T18:48:19.260Z,35.00
2019-04-16T18:50:48.556Z,36.70
2019-04-16T18:53:17.932Z,34.90
2019-04-16T18:55:47.330Z,33.90
2019-04-16T18:58:16.672Z,33.00
2019-04-16T19:00:51.576Z,31.40
2019-04-16T19:03:20.870Z,30.10
2019-04-16T19:05:50.263Z,31.60
2019-04-16T19:08:19.642Z,31.80
2019-04-16T19:10:48.956Z,31.20
2019-04-16T19:13:20.153Z,30.20
2019-04-16T19:15:49.371Z,31.00
2019-04-16T19:18:20.226Z,38.70
2019-04-16T19:20:51.803Z,38.00
2019-04-16T19:23:22.248Z,38.60
2019-04-16T19:25:54.943Z,38.70
2019-04-16T19:28:25.319Z,38.50
2019-04-16T19:30:54.799Z,38.60
2019-04-16T19:33:24.208Z,37.80
2019-04-16T19:35:53.659Z,38.40
2019-04-16T19:38:23.292Z,38.50
2019-04-16T19:40:53.000Z,38.80
2019-04-16T19:43:22.492Z,41.50
2019-04-16T19:45:51.875Z,42.70
2019-04-16T19:48:34.681Z,44.80
2019-04-16T19:50:52.289Z,44.50
2019-04-16T19:53:21.648Z,49.30
2019-04-16T19:55:51.045Z,49.00
2019-04-16T19:58:20.385Z,46.60
2019-04-16T20:00:50.074Z,47.80
2019-04-16T20:03:19.418Z,46.80
2019-04-16T20:05:48.774Z,47.00
2019-04-16T20:08:18.113Z,51.20
2019-04-16T20:10:48.779Z,48.70
2019-04-16T20:13:18.411Z,45.90
2019-04-16T20:15:47.843Z,45.70
2019-04-16T20:18:18.950Z,46.90
2019-04-16T20:20:50.208Z,47.90
2019-04-16T20:23:19.351Z,47.50
2019-04-16T20:25:48.662Z,49.50
2019-04-16T20:28:17.948Z,50.10
2019-04-16T20:30:47.393Z,49.60
2019-04-16T20:33:16.721Z,46.60
2019-04-16T20:35:50.370Z,49.80
2019-04-16T20:38:17.439Z,48.30
2019-04-16T20:40:46.744Z,48.80
2019-04-16T20:43:16.133Z,48.80
2019-04-16T20:45:45.555Z,49.80
2019-04-16T20:48:14.967Z,50.50
2019-04-16T20:50:44.341Z,52.40
2019-04-16T20:53:13.680Z,50.80
2019-04-16T20:55:47.063Z,51.20
2019-04-16T20:58:14.877Z,50.90
2019-04-16T21:00:47.181Z,54.40
2019-04-16T21:03:22.315Z,54.20
2019-04-16T21:05:57.944Z,52.40
2019-04-16T21:08:24.268Z,53.20
2019-04-16T21:10:49.630Z,53.70
2019-04-16T21:13:18.994Z,54.80
2019-04-16T21:15:48.371Z,53.20
2019-04-16T21:18:17.723Z,53.70
2019-04-16T21:20:50.845Z,54.70
2019-04-16T21:23:18.114Z,55.10
2019-04-16T21:25:47.526Z,55.80
2019-04-16T21:28:39.903Z,55.10
2019-04-16T21:31:34.453Z,54.70
2019-04-16T21:34:34.738Z,54.70
2019-04-16T21:37:38.245Z,55.00
2019-04-16T21:40:08.147Z,57.20
2019-04-16T21:42:37.497Z,57.70
2019-04-16T21:45:07.707Z,56.70
2019-04-16T21:47:37.073Z,56.10
2019-04-16T21:50:07.053Z,56.30
2019-04-16T21:52:36.364Z,56.80
2019-04-16T21:55:06.543Z,57.70
2019-04-16T21:57:35.903Z,57.30
2019-04-16T22:00:08.596Z,57.80
2019-04-16T22:02:39.034Z,58.60
2019-04-16T22:05:09.907Z,58.00
2019-04-16T22:07:39.258Z,58.00
2019-04-16T22:10:08.804Z,58.60
2019-04-16T22:12:39.119Z,58.60
2019-04-16T22:15:08.640Z,59.10
2019-04-16T22:17:38.028Z,58.50
2019-04-16T22:20:08.190Z,58.50
2019-04-16T22:22:37.527Z,58.30
2019-04-16T22:25:06.880Z,58.50
2019-04-16T22:27:39.490Z,58.40
2019-04-16T22:30:08.564Z,57.80
2019-04-16T22:32:37.928Z,58.00
2019-04-16T22:35:07.344Z,57.80
2019-04-16T22:37:36.667Z,58.60
2019-04-16T22:40:27.878Z,58.30
2019-04-16T22:43:16.258Z,58.40
2019-04-16T22:45:52.216Z,59.40
2019-04-16T22:48:21.259Z,59.00
2019-04-16T22:50:50.574Z,59.50
2019-04-16T22:53:19.854Z,59.00
2019-04-16T22:55:49.185Z,58.90
2019-04-16T22:58:25.186Z,60.70
2019-04-16T23:00:59.469Z,60.80
2019-04-16T23:03:28.928Z,60.80
2019-04-16T23:06:00.989Z,61.80
2019-04-16T23:08:29.317Z,60.60
2019-04-16T23:10:58.603Z,61.40
2019-04-16T23:13:32.246Z,62.20
2019-04-16T23:15:58.989Z,62.60
2019-04-16T23:18:28.316Z,63.10
2019-04-16T23:20:57.661Z,62.60
2019-04-16T23:23:27.018Z,62.60
2019-04-16T23:25:59.006Z,62.50
2019-04-16T23:28:27.410Z,62.60
2019-04-16T23:30:56.720Z,62.50
2019-04-16T23:33:26.000Z,61.50
2019-04-16T23:35:55.290Z,62.50
2019-04-16T23:38:24.635Z,62.50
2019-04-16T23:40:54.040Z,62.50
2019-04-16T23:43:45.660Z,62.50
2019-04-16T23:46:39.859Z,62.60
2019-04-16T23:49:27.712Z,62.50
2019-04-16T23:52:05.029Z,61.50
2019-04-16T23:54:43.983Z,62.40
2019-04-16T23:57:25.458Z,62.50
